Time;durP1;ratioP1;P1;durP2;ratioP2;P2;SDS_P1;SDS_P2;PMS_P1;PMS_P2;Temp;Humidity;BMP_temperature;BMP_pressure;BME280_temperature;BME280_humidity;BME280_pressure;Samples;Min_cycle;Max_cycle;Signal;HPM_P1;HPM_P2
2022/11/14 00:00:24;;;;;;;60.55;20.88;;;;;;;2.04;79.60;94501.63;5092025;28;20047;-34
2022/11/14 00:02:49;;;;;;;45.28;17.00;;;;;;;2.05;79.10;94509.34;5092017;28;20028;-34
2022/11/14 00:05:14;;;;;;;26.52;12.63;;;;;;;2.01;78.96;94497.16;5091493;28;20419;-34
2022/11/14 00:07:40;;;;;;;23.30;8.00;;;;;;;1.91;79.07;94498.44;5091852;28;20082;-33
2022/11/14 00:10:06;;;;;;;25.88;9.23;;;;;;;1.90;79.20;94500.41;5091804;28;20480;-33
2022/11/14 00:12:31;;;;;;;40.47;9.75;;;;;;;1.69;79.58;94498.03;5091419;28;20523;-33
2022/11/14 00:14:57;;;;;;;42.13;9.77;;;;;;;1.69;80.14;94495.31;5091781;28;20032;-34
2022/11/14 00:17:22;;;;;;;48.45;9.00;;;;;;;1.69;80.59;94501.47;5091668;28;20096;-34
2022/11/14 00:19:48;;;;;;;23.10;8.23;;;;;;;1.72;79.74;94495.13;5091632;28;20028;-34
2022/11/14 00:22:13;;;;;;;34.45;9.77;;;;;;;1.81;79.21;94497.78;5091628;28;20461;-34
2022/11/14 00:24:38;;;;;;;52.45;9.95;;;;;;;1.85;79.39;94495.63;5091225;28;20027;-34
2022/11/14 00:27:04;;;;;;;26.02;8.25;;;;;;;1.75;79.82;94498.88;5090868;28;20032;-34
2022/11/14 00:29:29;;;;;;;31.20;9.10;;;;;;;1.76;79.27;94495.69;5091016;28;20016;-34
2022/11/14 00:31:55;;;;;;;26.15;9.77;;;;;;;1.66;80.20;94493.50;5090986;28;20089;-34
2022/11/14 00:34:20;;;;;;;42.05;10.05;;;;;;;1.71;79.86;94496.31;5090994;28;20073;-34
2022/11/14 00:36:46;;;;;;;19.60;8.10;;;;;;;1.78;79.42;94490.53;5091329;28;20024;-34
2022/11/14 00:39:12;;;;;;;22.25;9.20;;;;;;;1.70;79.28;94489.38;5091329;28;20395;-34
2022/11/14 00:41:38;;;;;;;22.20;8.40;;;;;;;1.73;79.91;94480.31;5091192;28;20036;-34
2022/11/14 00:44:04;;;;;;;29.08;9.43;;;;;;;1.69;79.90;94470.81;5090948;28;20055;-34
2022/11/14 00:46:29;;;;;;;17.33;9.13;;;;;;;1.63;79.39;94470.69;5090785;28;20480;-34
2022/11/14 00:48:55;;;;;;;30.40;10.70;;;;;;;1.65;79.95;94479.13;5090703;28;20028;-34
2022/11/14 00:51:20;;;;;;;25.60;8.95;;;;;;;1.65;79.37;94472.94;5090673;28;20031;-34
2022/11/14 00:53:45;;;;;;;21.92;9.52;;;;;;;1.69;79.13;94476.97;5090660;28;20024;-34
2022/11/14 00:56:11;;;;;;;33.42;9.32;;;;;;;1.60;79.58;94474.34;5091009;28;20027;-34
2022/11/14 00:58:36;;;;;;;29.55;9.90;;;;;;;1.70;79.48;94472.28;5090502;28;20020;-34
2022/11/14 01:01:02;;;;;;;33.80;9.98;;;;;;;1.63;78.66;94473.41;5090922;28;20048;-34
2022/11/14 01:03:27;;;;;;;16.38;9.20;;;;;;;1.65;79.04;94473.69;5090646;28;20484;-34
2022/11/14 01:05:53;;;;;;;18.38;10.15;;;;;;;1.59;79.15;94461.19;5090442;28;20043;-34
2022/11/14 01:08:19;;;;;;;40.15;10.68;;;;;;;1.60;79.93;94468.16;5090780;28;20089;-34
2022/11/14 01:10:47;;;;;;;40.83;9.68;;;;;;;1.47;79.98;94466.41;5090736;28;20062;-34
2022/11/14 01:13:14;;;;;;;44.85;10.38;;;;;;;1.45;80.48;94459.97;5090764;28;20032;-34
2022/11/14 01:15:40;;;;;;;15.73;7.85;;;;;;;1.49;80.26;94465.97;5090583;28;20419;-34
2022/11/14 01:18:06;;;;;;;28.40;8.20;;;;;;;1.50;80.00;94470.94;5090657;28;20459;-34
2022/11/14 01:20:32;;;;;;;23.85;8.55;;;;;;;1.48;80.64;94465.22;5090603;28;20020;-34
2022/11/14 01:22:57;;;;;;;15.82;8.35;;;;;;;1.48;80.11;94461.75;5072304;28;20086;-34
2022/11/14 01:25:23;;;;;;;29.02;8.77;;;;;;;1.51;80.83;94461.56;5090052;28;20027;-34
2022/11/14 01:27:49;;;;;;;25.40;8.27;;;;;;;1.43;81.19;94460.41;5090483;28;20035;-34
2022/11/14 01:30:15;;;;;;;29.38;8.48;;;;;;;1.46;80.42;94451.31;5090388;28;20030;-34
2022/11/14 01:32:40;;;;;;;22.77;8.27;;;;;;;1.49;80.63;94452.38;5090479;28;20494;-34
2022/11/14 01:35:06;;;;;;;11.32;7.20;;;;;;;1.57;80.16;94458.19;5090496;28;20393;-34
2022/11/14 01:37:31;;;;;;;39.38;10.60;;;;;;;1.65;79.43;94453.88;5090523;28;20514;-34
2022/11/14 01:39:57;;;;;;;25.70;10.30;;;;;;;1.61;79.78;94451.34;5090188;28;20031;-34
2022/11/14 01:42:22;;;;;;;67.60;10.73;;;;;;;1.52;80.17;94448.69;5090095;28;20024;-34
2022/11/14 01:44:51;;;;;;;29.63;8.57;;;;;;;1.46;81.43;94448.59;5089991;28;20072;-34
2022/11/14 01:47:20;;;;;;;22.40;7.20;;;;;;;1.51;81.82;94439.81;5090298;28;20156;-34
2022/11/14 01:49:49;;;;;;;29.40;8.65;;;;;;;1.60;81.13;94441.69;5090358;28;20036;-34
2022/11/14 01:52:22;;;;;;;36.45;9.57;;;;;;;1.72;80.82;94437.94;5071973;28;20063;-34
2022/11/14 01:54:51;;;;;;;23.10;9.15;;;;;;;1.75;80.69;94434.31;5071992;28;20189;-34
2022/11/14 01:57:20;;;;;;;19.52;8.10;;;;;;;1.79;80.12;94431.38;5090333;28;20028;-34
2022/11/14 01:59:46;;;;;;;;;;;;;;;1.76;80.24;94430.34;5090573;28;20495;-34
2022/11/14 02:02:21;;;;;;;34.25;8.60;;;;;;;1.59;80.68;94433.97;5072160;28;19930;-33
2022/11/14 02:04:50;;;;;;;39.38;8.25;;;;;;;1.46;81.45;94426.84;5092436;28;20093;-34
2022/11/14 02:07:16;;;;;;;29.85;10.35;;;;;;;1.37;81.40;94415.25;5075920;28;20024;-34
2022/11/14 02:09:45;;;;;;;28.42;9.90;;;;;;;1.46;81.01;94432.28;5076213;28;20070;-34
2022/11/14 02:12:14;;;;;;;34.67;10.27;;;;;;;1.30;81.71;94427.25;5093898;28;20030;-34
2022/11/14 02:14:41;;;;;;;37.85;9.85;;;;;;;1.43;81.86;94425.03;5093783;28;20039;-34
2022/11/14 02:17:06;;;;;;;26.73;9.23;;;;;;;1.45;81.58;94421.88;5075927;28;20019;-34
2022/11/14 02:19:50;;;;;;;31.38;9.40;;;;;;;1.36;82.17;94400.94;5093754;28;20492;-34
2022/11/14 02:22:16;;;;;;;39.33;9.20;;;;;;;1.59;82.21;94426.56;5093628;28;20024;-34
2022/11/14 02:24:43;;;;;;;51.65;19.83;;;;;;;1.57;81.26;94422.81;5093552;28;20015;-34
2022/11/14 02:27:09;;;;;;;48.15;11.63;;;;;;;1.57;81.31;94426.28;5076836;28;20031;-34
2022/11/14 02:29:35;;;;;;;44.75;9.80;;;;;;;1.58;81.08;94418.88;5093235;28;20487;-34
2022/11/14 02:32:01;;;;;;;11.60;7.30;;;;;;;1.62;81.41;94422.16;5093775;28;20024;-34
2022/11/14 02:34:26;;;;;;;38.20;9.18;;;;;;;1.69;81.04;94421.81;5093369;28;20028;-34
2022/11/14 02:36:52;;;;;;;22.08;7.90;;;;;;;1.71;81.28;94416.66;5093411;28;20145;-34
2022/11/14 02:39:17;;;;;;;35.28;9.43;;;;;;;1.67;81.31;94416.81;5093334;28;20104;-34
2022/11/14 02:41:43;;;;;;;24.75;9.15;;;;;;;1.50;81.47;94418.47;5093585;28;20101;-34
2022/11/14 02:44:08;;;;;;;29.38;8.88;;;;;;;1.45;82.48;94424.59;5093213;28;20056;-34
2022/11/14 02:46:34;;;;;;;19.88;9.02;;;;;;;1.41;82.60;94424.00;5093409;28;20172;-34
2022/11/14 02:48:59;;;;;;;23.63;9.93;;;;;;;1.35;82.65;94415.75;5093335;28;20030;-34
2022/11/14 02:51:24;;;;;;;19.65;8.52;;;;;;;1.26;82.02;94413.09;5093406;28;20442;-34
2022/11/14 02:53:50;;;;;;;24.20;7.47;;;;;;;1.14;82.59;94413.34;5093310;28;20408;-34
2022/11/14 02:56:15;;;;;;;26.88;8.02;;;;;;;1.30;82.79;94416.38;5093346;28;20588;-34
2022/11/14 02:58:41;;;;;;;22.48;10.48;;;;;;;1.35;81.90;94414.97;5093175;28;20047;-34
2022/11/14 03:01:06;;;;;;;34.20;9.73;;;;;;;1.29;82.06;94417.59;5092839;28;20020;-34
2022/11/14 03:03:32;;;;;;;22.30;8.35;;;;;;;1.32;82.06;94408.50;5092981;28;20105;-33
2022/11/14 03:06:02;;;;;;;21.63;8.38;;;;;;;1.32;81.85;94415.94;5092927;28;20016;-34
2022/11/14 03:08:27;;;;;;;15.35;8.30;;;;;;;1.17;82.70;94396.09;5092849;28;20112;-34
2022/11/14 03:10:53;;;;;;;26.25;8.68;;;;;;;1.11;82.91;94404.13;5092807;28;20107;-34
2022/11/14 03:13:18;;;;;;;16.02;7.68;;;;;;;1.13;83.27;94409.09;5092741;28;20020;-34
2022/11/14 03:15:44;;;;;;;36.67;7.88;;;;;;;1.29;82.95;94401.28;5092637;28;20046;-34
2022/11/14 03:18:09;;;;;;;35.65;8.02;;;;;;;1.29;82.88;94406.72;5092801;28;20490;-34
2022/11/14 03:20:35;;;;;;;41.92;9.02;;;;;;;1.40;82.53;94409.66;5092705;28;20686;-34
2022/11/14 03:23:00;;;;;;;35.47;6.93;;;;;;;1.50;82.46;94400.19;5092293;28;20563;-34
2022/11/14 03:25:26;;;;;;;30.70;7.68;;;;;;;1.47;82.39;94400.38;5092128;28;20016;-34
2022/11/14 03:27:51;;;;;;;26.17;8.02;;;;;;;1.51;83.09;94396.25;5092611;28;20020;-34
2022/11/14 03:30:17;;;;;;;23.35;7.82;;;;;;;1.64;81.73;94397.97;5092188;28;20085;-34
2022/11/14 03:32:42;;;;;;;9.38;6.28;;;;;;;1.51;80.44;94379.94;5092242;28;20063;-34
2022/11/14 03:35:08;;;;;;;9.60;7.03;;;;;;;1.53;80.90;94391.09;5092117;28;20051;-34
2022/11/14 03:37:34;;;;;;;11.23;7.63;;;;;;;1.72;80.55;94396.34;5092228;28;20020;-34
2022/11/14 03:40:00;;;;;;;16.25;10.25;;;;;;;1.72;80.71;94397.13;5092436;28;20150;-34
2022/11/14 03:42:25;;;;;;;15.00;9.63;;;;;;;1.81;80.99;94388.88;5092260;28;20506;-34
2022/11/14 03:44:51;;;;;;;16.02;9.70;;;;;;;1.85;81.01;94391.38;5091841;28;20531;-34
2022/11/14 03:47:16;;;;;;;14.20;8.02;;;;;;;1.85;81.40;94391.38;5091995;28;20024;-34
2022/11/14 03:49:43;;;;;;;21.52;11.95;;;;;;;2.01;80.33;94382.75;5092241;28;20024;-34
2022/11/14 03:52:10;;;;;;;24.42;13.77;;;;;;;2.04;80.11;94388.00;5092212;28;20028;-34
2022/11/14 03:54:35;;;;;;;14.95;8.82;;;;;;;2.06;79.92;94390.25;5092022;28;20474;-34
2022/11/14 03:57:01;;;;;;;28.15;12.52;;;;;;;2.05;80.83;94389.53;5091864;28;20024;-34
2022/11/14 03:59:26;;;;;;;22.83;8.98;;;;;;;1.98;81.01;94392.63;5091840;28;20084;-34
2022/11/14 04:01:52;;;;;;;47.53;9.95;;;;;;;2.06;81.65;94384.81;5092064;28;20438;-34
2022/11/14 04:04:17;;;;;;;27.83;9.15;;;;;;;2.18;80.64;94392.69;5091992;28;20024;-34
2022/11/14 04:06:43;;;;;;;16.40;9.05;;;;;;;2.20;80.35;94389.50;5091859;28;20420;-34
2022/11/14 04:09:09;;;;;;;34.90;9.35;;;;;;;1.99;80.33;94375.03;5091776;28;20511;-34
2022/11/14 04:11:35;;;;;;;30.42;9.38;;;;;;;2.11;80.47;94378.69;5073580;28;20024;-34
2022/11/14 04:14:01;;;;;;;46.13;9.63;;;;;;;2.18;80.86;94386.50;5091507;28;20024;-34
2022/11/14 04:16:26;;;;;;;35.15;10.27;;;;;;;2.02;81.79;94390.44;5091425;28;20016;-34
2022/11/14 04:18:52;;;;;;;47.10;10.02;;;;;;;2.03;82.30;94391.97;5091804;28;20074;-34
2022/11/14 04:21:17;;;;;;;48.75;11.27;;;;;;;2.02;82.03;94389.69;5091295;28;20527;-34
2022/11/14 04:23:43;;;;;;;89.85;23.67;;;;;;;1.99;82.74;94393.38;5091328;28;20035;-34
2022/11/14 04:26:08;;;;;;;55.35;15.60;;;;;;;2.00;82.91;94383.97;5090724;28;20027;-34
2022/11/14 04:28:33;;;;;;;85.93;15.63;;;;;;;1.92;83.25;94377.41;5091065;28;20085;-34
2022/11/14 04:30:59;;;;;;;62.55;11.68;;;;;;;1.92;83.56;94377.41;5091141;28;20024;-34
2022/11/14 04:33:25;;;;;;;71.88;10.10;;;;;;;1.75;84.62;94384.53;5091176;28;20027;-33
2022/11/14 04:35:50;;;;;;;54.53;9.80;;;;;;;1.75;84.90;94374.41;5091049;28;20023;-34
2022/11/14 04:38:16;;;;;;;61.45;10.07;;;;;;;1.85;85.51;94381.25;5091120;28;20053;-34
2022/11/14 04:40:47;;;;;;;79.65;10.73;;;;;;;1.95;85.06;94381.91;5090867;28;20032;-34
2022/11/14 04:43:13;;;;;;;43.88;8.05;;;;;;;2.03;84.92;94380.31;5091092;28;20102;-34
2022/11/14 04:45:38;;;;;;;75.65;9.80;;;;;;;2.09;84.69;94373.72;5090685;28;20052;-34
2022/11/14 04:48:04;;;;;;;41.13;10.63;;;;;;;2.16;84.94;94378.03;5090772;28;20057;-34
2022/11/14 04:50:29;;;;;;;58.50;12.70;;;;;;;2.11;84.84;94375.97;5091003;28;20078;-34
2022/11/14 04:52:55;;;;;;;71.80;21.63;;;;;;;1.89;84.81;94372.88;5091017;28;20055;-34
2022/11/14 04:55:20;;;;;;;56.72;17.10;;;;;;;1.99;85.38;94371.59;5091084;28;20020;-34
2022/11/14 04:57:46;;;;;;;58.00;12.15;;;;;;;1.93;85.59;94376.16;5090695;28;20097;-34
2022/11/14 05:00:12;;;;;;;72.15;14.00;;;;;;;1.87;86.50;94375.34;5090628;28;20111;-34
2022/11/14 05:02:37;;;;;;;59.72;14.30;;;;;;;1.95;86.88;94381.91;5090506;28;20039;-34
2022/11/14 05:05:03;;;;;;;42.15;11.63;;;;;;;2.00;87.26;94382.00;5090825;28;20024;-34
2022/11/14 05:07:28;;;;;;;64.78;11.95;;;;;;;2.09;86.53;94378.41;5090543;28;20032;-34
2022/11/14 05:09:54;;;;;;;67.32;12.32;;;;;;;2.06;86.58;94377.38;5090807;28;20031;-34
2022/11/14 05:12:19;;;;;;;37.10;10.98;;;;;;;2.14;87.23;94380.50;5090390;28;20405;-34
2022/11/14 05:14:45;;;;;;;48.83;12.70;;;;;;;2.25;87.25;94380.66;5090744;28;20038;-34
2022/11/14 05:17:10;;;;;;;66.50;11.93;;;;;;;2.27;87.47;94380.94;5090261;28;20028;-34
2022/11/14 05:19:36;;;;;;;48.10;13.20;;;;;;;2.31;86.65;94384.22;5090771;28;20028;-34
2022/11/14 05:22:01;;;;;;;66.38;12.43;;;;;;;2.29;86.25;94383.94;5090645;28;20024;-34
2022/11/14 05:24:27;;;;;;;65.85;12.93;;;;;;;2.30;86.65;94390.88;5090544;28;20032;-34
2022/11/14 05:26:53;;;;;;;55.70;9.65;;;;;;;2.27;85.98;94394.56;5090053;28;20069;-34
2022/11/14 05:29:18;;;;;;;42.58;9.27;;;;;;;2.30;85.97;94386.19;5089956;28;20066;-34
2022/11/14 05:31:44;;;;;;;47.10;8.85;;;;;;;2.37;85.72;94390.50;5090343;28;20110;-34
2022/11/14 05:34:09;;;;;;;25.83;9.15;;;;;;;2.35;85.06;94390.22;5090525;28;20081;-34
2022/11/14 05:36:35;;;;;;;37.58;8.75;;;;;;;2.28;85.35;94394.09;5090420;28;20039;-34
2022/11/14 05:39:00;;;;;;;46.38;12.88;;;;;;;2.30;85.62;94385.44;5091306;28;20042;-34
2022/11/14 05:41:26;;;;;;;33.67;13.07;;;;;;;2.29;85.79;94389.41;5094432;28;20624;-34
2022/11/14 05:43:51;;;;;;;32.72;11.25;;;;;;;2.46;85.33;94390.38;5094246;28;20036;-33
2022/11/14 05:46:16;;;;;;;32.35;11.60;;;;;;;2.48;85.61;94398.84;5094464;28;20024;-34
2022/11/14 05:48:42;;;;;;;40.53;12.95;;;;;;;2.44;85.38;94384.66;5094156;28;20035;-34
2022/11/14 05:51:10;;;;;;;28.75;10.77;;;;;;;2.45;85.04;94391.59;5094256;28;20073;-34
2022/11/14 05:53:36;;;;;;;22.88;8.18;;;;;;;2.35;84.44;94394.91;5094200;28;20024;-34
2022/11/14 05:56:03;;;;;;;31.83;9.55;;;;;;;2.41;84.27;94396.50;5094419;28;20024;-34
2022/11/14 05:58:33;;;;;;;25.80;9.00;;;;;;;2.38;85.14;94393.97;5094314;28;20051;-34
2022/11/14 06:01:06;;;;;;;26.40;9.77;;;;;;;2.49;85.17;94396.88;5094075;28;20034;-34
2022/11/14 06:03:33;;;;;;;20.67;9.25;;;;;;;2.49;84.74;94375.81;5094045;28;20110;-34
2022/11/14 06:06:03;;;;;;;52.08;13.75;;;;;;;2.64;84.92;94395.59;5093948;28;20020;-34
2022/11/14 06:08:29;;;;;;;52.42;19.42;;;;;;;2.78;84.60;94391.31;5093703;28;20026;-34
2022/11/14 06:10:54;;;;;;;44.72;14.55;;;;;;;2.82;84.46;94395.34;5093918;28;20027;-34
2022/11/14 06:13:20;;;;;;;49.90;12.40;;;;;;;2.93;84.25;94408.38;5093824;28;20028;-34
2022/11/14 06:15:45;;;;;;;18.73;10.88;;;;;;;2.93;83.38;94400.97;5093852;28;20016;-34
2022/11/14 06:18:11;;;;;;;30.05;10.25;;;;;;;2.94;83.65;94407.94;5093691;28;20023;-34
2022/11/14 06:20:36;;;;;;;37.60;10.52;;;;;;;3.05;83.76;94410.78;5093932;28;20115;-34
2022/11/14 06:23:02;;;;;;;49.20;13.75;;;;;;;3.01;84.13;94407.50;5093598;28;20020;-34
2022/11/14 06:25:27;;;;;;;48.70;11.70;;;;;;;3.17;83.93;94398.03;5093303;28;20012;-34
2022/11/14 06:27:52;;;;;;;55.00;14.98;;;;;;;3.24;84.25;94407.78;5093431;28;20071;-33
2022/11/14 06:30:18;;;;;;;51.47;16.50;;;;;;;3.32;84.61;94403.41;5093663;28;20052;-34
2022/11/14 06:32:43;;;;;;;85.22;16.75;;;;;;;3.36;84.40;94395.75;5093540;28;20541;-34
2022/11/14 06:35:09;;;;;;;75.30;17.90;;;;;;;3.42;84.62;94391.13;5093375;28;20027;-34
2022/11/14 06:37:36;;;;;;;51.50;14.88;;;;;;;3.58;85.42;94396.00;5093527;28;20020;-34
2022/11/14 06:40:01;;;;;;;100.32;15.18;;;;;;;3.70;85.69;94400.38;5093253;28;20085;-34
2022/11/14 06:42:27;;;;;;;77.05;13.25;;;;;;;3.83;85.33;94398.75;5093459;28;20032;-34
2022/11/14 06:44:52;;;;;;;44.00;12.02;;;;;;;3.95;84.72;94396.88;5092981;28;20420;-34
2022/11/14 06:47:18;;;;;;;114.35;23.80;;;;;;;4.05;84.25;94402.94;5093187;28;20023;-34
2022/11/14 06:49:43;;;;;;;85.55;13.40;;;;;;;4.06;83.05;94402.47;5092635;28;20024;-34
2022/11/14 06:52:09;;;;;;;53.20;13.43;;;;;;;4.11;83.45;94401.75;5093020;28;20016;-34
2022/11/14 06:54:35;;;;;;;42.10;12.05;;;;;;;4.24;84.22;94413.06;5092990;28;20020;-34
2022/11/14 06:57:00;;;;;;;92.15;11.30;;;;;;;4.32;84.02;94405.16;5092961;28;20027;-34
2022/11/14 06:59:26;;;;;;;74.05;10.90;;;;;;;4.31;83.22;94409.88;5093057;28;20016;-34
2022/11/14 07:01:51;;;;;;;108.32;11.38;;;;;;;4.37;82.64;94405.22;5092903;28;20055;-34
2022/11/14 07:04:17;;;;;;;110.93;12.10;;;;;;;4.37;82.92;94410.69;5093166;28;20027;-34
2022/11/14 07:06:42;;;;;;;92.50;13.88;;;;;;;4.42;83.26;94409.97;5092574;28;20411;-34
2022/11/14 07:09:09;;;;;;;94.95;22.08;;;;;;;4.55;82.47;94406.81;5092649;28;20040;-34
2022/11/14 07:11:35;;;;;;;88.55;19.77;;;;;;;4.60;82.54;94406.88;5092708;28;20020;-34
2022/11/14 07:14:02;;;;;;;89.22;12.20;;;;;;;4.50;81.27;94402.81;5092707;28;20043;-34
2022/11/14 07:16:36;;;;;;;47.45;10.32;;;;;;;4.49;80.57;94409.53;5092542;28;20063;-34
2022/11/14 07:19:04;;;;;;;60.53;9.77;;;;;;;4.53;81.06;94406.56;5092871;28;20107;-34
2022/11/14 07:21:30;;;;;;;50.85;10.73;;;;;;;4.48;80.99;94404.53;5092820;28;20062;-34
2022/11/14 07:23:56;;;;;;;81.90;13.30;;;;;;;4.48;81.82;94401.81;5092484;28;20059;-34
2022/11/14 07:26:22;;;;;;;64.75;11.38;;;;;;;4.62;80.86;94395.44;5092398;28;20399;-34
2022/11/14 07:28:48;;;;;;;48.50;11.18;;;;;;;4.77;82.00;94390.56;5092178;28;20016;-34
2022/11/14 07:31:16;;;;;;;35.92;11.52;;;;;;;5.02;82.59;94386.22;5092289;28;20032;-34
2022/11/14 07:33:42;;;;;;;63.25;11.07;;;;;;;5.26;82.24;94386.59;5092279;28;20027;-34
2022/11/14 07:36:08;;;;;;;36.58;10.07;;;;;;;5.54;80.72;94383.94;5092570;28;20028;-34
2022/11/14 07:38:35;;;;;;;49.13;7.65;;;;;;;5.62;79.36;94387.72;5092288;28;20023;-34
2022/11/14 07:41:19;;;;;;;29.02;9.65;;;;;;;5.63;78.45;94384.47;5092200;28;20107;-34
2022/11/14 07:43:44;;;;;;;35.45;8.77;;;;;;;5.76;79.33;94386.75;5091939;28;20052;-34
2022/11/14 07:46:12;;;;;;;38.63;12.20;;;;;;;5.97;79.49;94388.81;5092317;28;20030;-34
2022/11/14 07:48:38;;;;;;;55.58;11.05;;;;;;;6.06;76.76;94383.09;5091870;28;20020;-34
2022/11/14 07:51:05;;;;;;;58.22;9.75;;;;;;;6.06;75.83;94379.63;5092307;28;20100;-34
2022/11/14 07:53:31;;;;;;;44.72;10.77;;;;;;;6.05;77.17;94373.38;5091802;28;20024;-34
2022/11/14 07:56:02;;;;;;;46.95;10.45;;;;;;;6.05;78.15;94370.63;5091863;28;20016;-34
2022/11/14 07:58:27;;;;;;;38.58;10.30;;;;;;;6.23;78.18;94371.41;5091981;28;20027;-34
2022/11/14 08:00:53;;;;;;;66.20;14.40;;;;;;;6.26;77.33;94364.91;5091585;28;20063;-34
2022/11/14 08:03:18;;;;;;;43.33;11.50;;;;;;;6.49;77.56;94369.91;5091185;28;20111;-34
2022/11/14 08:05:44;;;;;;;46.05;11.38;;;;;;;6.65;76.71;94366.38;5091632;28;20032;-34
2022/11/14 08:08:09;;;;;;;15.75;11.50;;;;;;;6.90;76.49;94364.59;5091647;28;20032;-34
2022/11/14 08:10:35;;;;;;;27.60;12.77;;;;;;;6.99;74.77;94364.34;5091609;28;20027;-34
2022/11/14 08:13:03;;;;;;;30.63;15.25;;;;;;;7.19;74.54;94369.50;5091839;28;20567;-34
2022/11/14 08:15:29;;;;;;;44.13;14.30;;;;;;;7.32;74.23;94358.72;5091607;28;20032;-34
2022/11/14 08:17:58;;;;;;;52.88;9.20;;;;;;;7.31;72.25;94368.22;5091537;28;20073;-34
2022/11/14 08:20:24;;;;;;;;;;;;;;;7.46;73.01;94362.41;5092050;28;20510;-34
2022/11/14 08:22:50;;;;;;;18.95;8.85;;;;;;;7.53;73.58;94368.13;5091642;28;19908;-34
2022/11/14 08:25:15;;;;;;;69.20;11.40;;;;;;;7.62;71.85;94367.09;5091110;28;20047;-34
2022/11/14 08:27:41;;;;;;;20.23;10.77;;;;;;;7.73;72.95;94363.53;5091424;28;20035;-34
2022/11/14 08:30:07;;;;;;;20.30;8.90;;;;;;;7.94;73.66;94364.66;5091096;28;20024;-34
2022/11/14 08:32:33;;;;;;;35.55;14.15;;;;;;;8.07;71.57;94362.06;5091139;28;20162;-34
2022/11/14 08:34:59;;;;;;;20.48;13.27;;;;;;;8.27;70.04;94367.22;5091203;28;20055;-34
2022/11/14 08:37:24;;;;;;;38.63;17.27;;;;;;;8.63;70.98;94365.16;5091477;28;20685;-34
2022/11/14 08:39:50;;;;;;;28.15;15.40;;;;;;;8.82;69.90;94366.75;5091016;28;20022;-34
2022/11/14 08:42:15;;;;;;;29.25;15.85;;;;;;;9.10;69.09;94363.69;5091310;28;20054;-34
2022/11/14 08:44:41;;;;;;;26.55;16.48;;;;;;;9.53;69.49;94358.22;5090847;28;20074;-34
2022/11/14 08:47:06;;;;;;;33.72;20.90;;;;;;;10.08;68.12;94353.94;5091229;28;20020;-34
2022/11/14 08:49:31;;;;;;;33.83;19.88;;;;;;;10.56;66.89;94364.78;5072813;28;20024;-34
2022/11/14 08:51:58;;;;;;;27.50;16.70;;;;;;;10.79;64.22;94356.88;5091029;28;20447;-34
2022/11/14 08:54:24;;;;;;;29.38;17.35;;;;;;;10.87;64.03;94355.72;5091035;28;20031;-34
2022/11/14 08:56:49;;;;;;;25.48;15.30;;;;;;;11.04;63.80;94350.66;5091048;28;20431;-34
2022/11/14 08:59:15;;;;;;;22.17;12.95;;;;;;;11.46;61.73;94350.88;5091071;28;20526;-34
2022/11/14 09:01:40;;;;;;;17.63;11.98;;;;;;;11.79;60.57;94347.44;5090965;28;20020;-34
2022/11/14 09:04:05;;;;;;;18.42;11.48;;;;;;;12.32;59.96;94336.97;5090929;28;20032;-34
2022/11/14 09:06:31;;;;;;;21.45;11.70;;;;;;;12.53;58.82;94335.72;5090317;28;20036;-34
2022/11/14 09:08:57;;;;;;;14.73;10.80;;;;;;;12.71;59.93;94325.72;5090563;28;20103;-34
2022/11/14 09:11:22;;;;;;;14.32;10.35;;;;;;;13.74;57.38;94335.81;5090501;28;20415;-34
2022/11/14 09:13:48;;;;;;;18.95;12.73;;;;;;;14.77;55.35;94332.44;5090677;28;20019;-35
2022/11/14 09:16:13;;;;;;;13.18;10.43;;;;;;;15.77;51.46;94321.38;5090755;28;20112;-34
2022/11/14 09:18:39;;;;;;;13.70;10.68;;;;;;;16.91;48.22;94308.34;5090340;28;20476;-35
2022/11/14 09:21:06;;;;;;;15.10;11.15;;;;;;;17.97;46.48;94313.63;5090418;28;20111;-35
2022/11/14 09:23:32;;;;;;;13.30;11.25;;;;;;;19.09;42.92;94298.66;5090396;28;20059;-35
2022/11/14 09:26:08;;;;;;;14.85;11.27;;;;;;;20.14;40.98;94295.97;5090379;28;20385;-35
2022/11/14 09:28:34;;;;;;;15.32;12.27;;;;;;;21.11;38.64;94289.53;5090124;28;20035;-35
2022/11/14 09:31:07;;;;;;;13.45;11.40;;;;;;;21.45;37.00;94291.16;5072128;28;20062;-35
2022/11/14 09:33:33;;;;;;;14.73;12.95;;;;;;;21.80;37.54;94285.72;5072224;28;20066;-35
2022/11/14 09:36:00;;;;;;;17.52;13.57;;;;;;;22.40;35.42;94288.94;5090508;28;20024;-35
2022/11/14 09:38:26;;;;;;;15.35;13.00;;;;;;;22.57;34.35;94280.91;5090255;28;20526;-35
2022/11/14 09:41:07;;;;;;;16.70;13.13;;;;;;;22.84;34.29;94280.50;5090184;28;20106;-35
2022/11/14 09:43:52;;;;;;;15.38;11.82;;;;;;;23.28;33.26;94276.84;5090145;28;20428;-35
2022/11/14 09:46:24;;;;;;;16.95;15.00;;;;;;;22.80;32.94;94276.69;5038909;28;20044;-35
2022/11/14 09:48:50;;;;;;;16.65;14.52;;;;;;;22.79;34.07;94272.41;5072198;28;20016;-35
2022/11/14 09:51:19;;;;;;;15.45;13.48;;;;;;;23.46;33.22;94268.75;5072130;28;20043;-35
2022/11/14 09:54:06;;;;;;;23.90;13.13;;;;;;;23.80;32.62;94268.66;5090060;28;20028;-35
2022/11/14 09:56:32;;;;;;;14.15;12.45;;;;;;;24.05;32.88;94257.47;5090323;28;20407;-35
2022/11/14 09:58:58;;;;;;;14.00;11.77;;;;;;;24.53;31.63;94255.88;5090057;28;20024;-35
2022/11/14 10:01:36;;;;;;;16.02;12.73;;;;;;;24.13;31.86;94251.53;5090168;28;20457;-35
2022/11/14 10:04:01;;;;;;;14.85;12.90;;;;;;;24.22;31.56;94250.66;5089978;28;20035;-35
2022/11/14 10:06:34;;;;;;;15.48;13.48;;;;;;;24.15;31.63;94253.75;5089870;28;20032;-35
2022/11/14 10:09:21;;;;;;;17.05;13.05;;;;;;;24.36;31.88;94247.88;5072217;28;20028;-35
2022/11/14 10:11:53;;;;;;;16.88;12.52;;;;;;;24.41;32.03;94249.56;5072018;28;20590;-35
2022/11/14 10:14:34;;;;;;;15.63;13.05;;;;;;;24.39;32.24;94226.88;5072282;28;20024;-35
2022/11/14 10:17:15;;;;;;;14.63;12.27;;;;;;;24.49;31.28;94228.19;5090167;28;20020;-35
2022/11/14 10:20:03;;;;;;;17.00;15.20;;;;;;;24.47;31.56;94219.56;5089917;28;20047;-35
2022/11/14 10:22:42;;;;;;;17.08;15.15;;;;;;;24.48;31.76;94209.75;5089728;28;20024;-35
2022/11/14 10:25:25;;;;;;;16.48;13.32;;;;;;;24.05;32.69;94212.34;5091019;28;20129;-35
2022/11/14 10:27:59;;;;;;;14.90;13.27;;;;;;;24.16;32.41;94216.44;5075433;28;20587;-35
2022/11/14 10:30:33;;;;;;;18.50;14.00;;;;;;;24.02;32.57;94205.06;5093655;28;20059;-35
2022/11/14 10:33:08;;;;;;;15.82;13.27;;;;;;;24.67;30.94;94208.63;5093819;28;20028;-35
2022/11/14 10:35:41;;;;;;;16.60;13.77;;;;;;;24.95;30.55;94198.88;5093761;28;20031;-35
2022/11/14 10:38:33;;;;;;;14.15;12.07;;;;;;;24.93;30.62;94204.41;5075683;28;20039;-35
2022/11/14 10:41:01;;;;;;;10.80;9.70;;;;;;;24.84;31.11;94177.09;5075328;28;20023;-35
2022/11/14 10:43:47;;;;;;;9.35;8.07;;;;;;;25.05;30.48;94188.13;5075097;28;20103;-36
2022/11/14 10:46:15;;;;;;;7.95;6.85;;;;;;;25.51;29.91;94186.97;5075194;28;20031;-35
2022/11/14 10:48:43;;;;;;;9.43;7.63;;;;;;;25.39;30.26;94189.88;5074904;28;20036;-35
2022/11/14 10:51:30;;;;;;;7.68;5.90;;;;;;;25.63;28.68;94186.81;5093178;28;20552;-35
2022/11/14 10:54:03;;;;;;;9.38;7.90;;;;;;;25.62;28.69;94182.53;5058223;28;20055;-35
2022/11/14 10:56:28;;;;;;;7.18;5.90;;;;;;;25.93;27.52;94174.16;5092700;28;20055;-35
2022/11/14 10:58:54;;;;;;;6.10;5.50;;;;;;;25.65;26.32;94179.16;5074406;28;20052;-35
2022/11/14 11:01:38;;;;;;;6.45;5.60;;;;;;;25.80;27.27;94172.84;5092722;28;20480;-35
2022/11/14 11:04:29;;;;;;;7.35;5.38;;;;;;;26.07;25.95;94169.19;5092709;28;20026;-35
2022/11/14 11:06:57;;;;;;;5.15;4.65;;;;;;;26.26;26.09;94169.47;5093054;28;20035;-35
2022/11/14 11:12:22;;;;;;;6.13;5.53;;;;;;;25.35;25.91;94163.50;5092817;28;20078;-35
2022/11/14 11:14:49;;;;;;;6.82;5.80;;;;;;;24.83;26.12;94139.66;5092707;28;20052;-35
2022/11/14 11:17:20;;;;;;;9.73;6.20;;;;;;;25.06;26.48;94158.50;5074914;28;20059;-35
2022/11/14 11:19:47;;;;;;;11.13;7.20;;;;;;;24.84;27.35;94158.06;5092596;28;20077;-35
2022/11/14 11:22:44;;;;;;;10.23;8.10;;;;;;;24.14;28.16;94159.16;5092780;28;20028;-35
2022/11/14 11:25:28;;;;;;;17.70;12.80;;;;;;;24.25;27.98;94147.81;5092166;28;20507;-35
2022/11/14 11:28:14;;;;;;;14.57;9.77;;;;;;;24.51;28.08;94145.66;5092567;28;20027;-35
2022/11/14 11:30:55;;;;;;;9.50;7.88;;;;;;;24.88;27.56;94148.34;5092461;28;20077;-35